Time;durP1;ratioP1;P1;durP2;ratioP2;P2;SDS_P1;SDS_P2;PMS_P1;PMS_P2;Temp;Humidity;BMP_temperature;BMP_pressure;BME280_temperature;BME280_humidity;BME280_pressure;Samples;Min_cycle;Max_cycle;Signal;HPM_P1;HPM_P2
2022/03/15 00:00:59;;;;;;;7.10;3.63;;;6.00;99.90;;;;;;5021641;28;20693;-72
2022/03/15 00:03:26;;;;;;;5.80;3.50;;;6.10;99.90;;;;;;5020728;28;20214;-74
2022/03/15 00:05:53;;;;;;;5.73;3.37;;;5.90;99.90;;;;;;5019314;28;20269;-72
2022/03/15 00:08:20;;;;;;;8.00;3.67;;;5.80;99.90;;;;;;5019951;28;20487;-72
2022/03/15 00:10:48;;;;;;;7.63;3.10;;;5.70;99.90;;;;;;5025028;28;20196;-72
2022/03/15 00:13:15;;;;;;;5.23;2.87;;;5.70;99.90;;;;;;5021897;28;20192;-72
2022/03/15 00:15:42;;;;;;;7.03;3.13;;;5.60;99.90;;;;;;5026406;28;20206;-75
2022/03/15 00:18:09;;;;;;;7.07;3.10;;;5.50;99.90;;;;;;5029103;28;20309;-72
2022/03/15 00:20:36;;;;;;;6.67;2.87;;;5.60;99.90;;;;;;5022562;28;20519;-72
2022/03/15 00:23:03;;;;;;;7.30;3.70;;;5.60;99.90;;;;;;5020165;28;20574;-72
2022/03/15 00:25:30;;;;;;;7.00;2.93;;;5.70;99.90;;;;;;5027172;28;20220;-72
2022/03/15 00:27:57;;;;;;;4.97;2.70;;;5.90;99.90;;;;;;5022489;28;20737;-73
2022/03/15 00:30:25;;;;;;;8.30;3.10;;;5.80;99.90;;;;;;5023387;28;20204;-72
2022/03/15 00:32:52;;;;;;;5.73;3.00;;;5.70;99.90;;;;;;5025074;28;20261;-72
2022/03/15 00:35:20;;;;;;;6.73;2.57;;;5.60;99.90;;;;;;5025091;28;20253;-72
2022/03/15 00:37:54;;;;;;;5.50;3.13;;;5.60;99.90;;;;;;5019909;28;20223;-72
2022/03/15 00:40:22;;;;;;;7.23;3.33;;;5.50;99.90;;;;;;5024562;28;20193;-73
2022/03/15 00:42:53;;;;;;;5.53;3.03;;;5.50;99.90;;;;;;5024570;28;20196;-74
2022/03/15 00:45:23;;;;;;;6.40;3.43;;;5.50;99.90;;;;;;5018150;28;20580;-72
2022/03/15 00:47:51;;;;;;;7.57;3.77;;;5.50;99.90;;;;;;5022983;28;20593;-73
2022/03/15 00:50:18;;;;;;;8.00;3.40;;;5.70;99.90;;;;;;5023793;28;20567;-72
2022/03/15 00:52:51;;;;;;;4.60;2.60;;;5.70;99.90;;;;;;5025746;28;20194;-72
2022/03/15 00:55:17;;;;;;;5.43;2.80;;;5.60;99.90;;;;;;5021734;28;20661;-74
2022/03/15 00:57:44;;;;;;;5.93;3.20;;;5.60;99.90;;;;;;5024402;28;20207;-72
2022/03/15 01:00:12;;;;;;;4.60;3.00;;;5.50;99.90;;;;;;5027822;28;20269;-73
2022/03/15 01:02:39;;;;;;;7.83;2.97;;;5.50;99.90;;;;;;5023206;28;20199;-72
2022/03/15 01:05:07;;;;;;;5.93;3.40;;;5.50;99.90;;;;;;5025468;28;20203;-72
2022/03/15 01:07:34;;;;;;;8.13;3.13;;;5.60;99.90;;;;;;5019585;28;20254;-72
2022/03/15 01:10:00;;;;;;;8.17;3.17;;;5.60;99.90;;;;;;5024550;28;20293;-72
2022/03/15 01:12:27;;;;;;;5.33;2.83;;;5.70;99.90;;;;;;5025388;28;20571;-72
2022/03/15 01:14:54;;;;;;;6.20;2.60;;;5.70;99.90;;;;;;5019341;28;20690;-75
2022/03/15 01:17:20;;;;;;;5.67;2.70;;;5.70;99.90;;;;;;5022226;28;20222;-73
2022/03/15 01:19:47;;;;;;;5.70;3.00;;;5.70;99.90;;;;;;5022515;28;20201;-72
2022/03/15 01:22:14;;;;;;;5.50;2.60;;;5.70;99.90;;;;;;5022325;28;20227;-72
2022/03/15 01:24:40;;;;;;;4.23;3.00;;;5.60;99.90;;;;;;5025464;28;20221;-73
2022/03/15 01:27:07;;;;;;;4.67;2.77;;;5.50;99.90;;;;;;5022212;28;20698;-72
2022/03/15 01:29:34;;;;;;;7.33;3.53;;;5.80;99.90;;;;;;5021081;28;20202;-72
2022/03/15 01:32:00;;;;;;;6.00;3.23;;;5.80;99.90;;;;;;5019889;28;20199;-74
2022/03/15 01:34:28;;;;;;;4.47;2.80;;;5.60;99.90;;;;;;5023589;28;20221;-74
2022/03/15 01:36:54;;;;;;;7.77;3.10;;;5.60;99.90;;;;;;5024091;28;20202;-74
2022/03/15 01:39:21;;;;;;;6.47;3.33;;;5.60;99.90;;;;;;5019757;28;20209;-72
2022/03/15 01:41:48;;;;;;;4.10;3.00;;;5.70;99.90;;;;;;5023975;28;20586;-72
2022/03/15 01:44:18;;;;;;;5.93;3.03;;;5.70;99.90;;;;;;5027187;28;20246;-73
2022/03/15 01:46:49;;;;;;;7.33;3.10;;;5.60;99.90;;;;;;5021477;28;20217;-72
2022/03/15 01:49:16;;;;;;;6.03;3.07;;;5.60;99.90;;;;;;5024509;28;20201;-72
2022/03/15 01:51:45;;;;;;;9.80;3.20;;;5.60;99.90;;;;;;5025949;28;20202;-72
2022/03/15 01:54:13;;;;;;;7.00;3.30;;;5.60;99.90;;;;;;5021940;28;20586;-72
2022/03/15 01:56:42;;;;;;;4.50;2.80;;;5.60;99.90;;;;;;5021730;28;20214;-73
2022/03/15 01:59:10;;;;;;;7.57;3.30;;;5.60;99.90;;;;;;5019690;28;20219;-72
2022/03/15 02:01:38;;;;;;;7.90;3.73;;;5.80;99.90;;;;;;5021516;28;20309;-70
2022/03/15 02:04:06;;;;;;;5.47;3.10;;;5.90;99.90;;;;;;5021264;28;20197;-74
2022/03/15 02:06:44;;;;;;;5.57;3.20;;;5.90;99.90;;;;;;5020889;28;20712;-73
2022/03/15 02:09:15;;;;;;;7.53;3.70;;;5.80;99.90;;;;;;5022765;28;20685;-73
2022/03/15 02:11:45;;;;;;;6.77;3.20;;;5.90;99.90;;;;;;5020193;28;20206;-74
2022/03/15 02:14:12;;;;;;;7.30;4.10;;;5.80;99.90;;;;;;5027106;28;20616;-72
2022/03/15 02:16:39;;;;;;;8.33;3.87;;;5.90;99.90;;;;;;5023663;28;20656;-75
2022/03/15 02:19:06;;;;;;;10.40;3.90;;;5.80;99.90;;;;;;5015736;28;20926;-72
2022/03/15 02:21:36;;;;;;;7.83;4.10;;;5.70;99.90;;;;;;5024147;28;20722;-73
2022/03/15 02:24:04;;;;;;;10.07;4.50;;;5.80;99.90;;;;;;5021327;28;20202;-72
2022/03/15 02:26:30;;;;;;;8.33;4.03;;;5.80;99.90;;;;;;5017488;28;20234;-73
2022/03/15 02:28:57;;;;;;;7.40;3.63;;;5.90;99.90;;;;;;5023235;28;20214;-72
2022/03/15 02:31:24;;;;;;;7.33;3.80;;;5.60;99.90;;;;;;5027474;28;20216;-72
2022/03/15 02:33:51;;;;;;;7.00;3.90;;;5.50;99.90;;;;;;5025820;28;20198;-75
2022/03/15 02:36:18;;;;;;;7.07;3.83;;;5.60;99.90;;;;;;5025919;28;20209;-76
2022/03/15 02:38:46;;;;;;;5.70;3.50;;;5.50;99.90;;;;;;5019471;28;20223;-72
2022/03/15 02:41:14;;;;;;;6.70;3.30;;;5.50;99.90;;;;;;5017132;28;20210;-73
2022/03/15 02:43:42;;;;;;;6.37;3.57;;;5.50;99.90;;;;;;5023408;28;20213;-73
2022/03/15 02:46:09;;;;;;;7.83;3.87;;;5.60;99.90;;;;;;5022089;28;20220;-74
2022/03/15 02:48:36;;;;;;;7.73;3.40;;;5.70;99.90;;;;;;5019649;28;20716;-72
2022/03/15 02:51:08;;;;;;;10.20;3.80;;;5.70;99.90;;;;;;5023796;28;20205;-72
2022/03/15 02:53:37;;;;;;;7.60;4.40;;;5.90;99.90;;;;;;5022823;28;20567;-71
2022/03/15 02:56:10;;;;;;;9.13;3.63;;;6.00;99.90;;;;;;5023668;28;20211;-71
2022/03/15 02:58:40;;;;;;;6.30;3.87;;;5.90;99.90;;;;;;5020838;28;20287;-74
2022/03/15 03:01:08;;;;;;;6.33;3.40;;;5.80;99.90;;;;;;5016531;28;20206;-74
2022/03/15 03:03:36;;;;;;;6.77;3.60;;;5.70;99.90;;;;;;5018954;28;20715;-74
2022/03/15 03:06:03;;;;;;;7.07;3.47;;;5.70;99.90;;;;;;5020755;28;20285;-71
2022/03/15 03:08:31;;;;;;;5.60;3.40;;;5.60;99.90;;;;;;5015728;28;20631;-72
2022/03/15 03:10:59;;;;;;;6.67;3.70;;;5.60;99.90;;;;;;5026774;28;20192;-73
2022/03/15 03:13:26;;;;;;;5.17;3.30;;;5.60;99.90;;;;;;5025329;28;20202;-73
2022/03/15 03:15:58;;;;;;;6.73;3.70;;;5.40;99.90;;;;;;5022372;28;20204;-70
2022/03/15 03:18:32;;;;;;;9.63;3.70;;;5.50;99.90;;;;;;5019853;28;20597;-72
2022/03/15 03:21:04;;;;;;;11.20;3.90;;;5.80;99.90;;;;;;5021432;28;20248;-72
2022/03/15 03:23:33;;;;;;;7.93;3.70;;;5.70;99.90;;;;;;5020244;28;20223;-72
2022/03/15 03:25:59;;;;;;;6.00;3.40;;;5.60;99.90;;;;;;5025825;28;20202;-73
2022/03/15 03:28:37;;;;;;;7.83;4.20;;;5.60;99.90;;;;;;5019725;28;20269;-73
2022/03/15 03:31:05;;;;;;;11.07;4.10;;;5.70;99.90;;;;;;5018795;28;20198;-72
2022/03/15 03:33:32;;;;;;;6.30;3.23;;;5.70;99.90;;;;;;5016579;28;20190;-72
2022/03/15 03:35:59;;;;;;;6.37;3.23;;;5.80;99.90;;;;;;5024178;28;20304;-73
2022/03/15 03:38:27;;;;;;;8.23;3.67;;;5.60;99.90;;;;;;5027554;28;20209;-71
2022/03/15 03:40:54;;;;;;;6.23;3.70;;;5.60;99.90;;;;;;5024654;28;20454;-72
2022/03/15 03:43:21;;;;;;;8.30;3.80;;;5.50;99.90;;;;;;5021830;28;20206;-73
2022/03/15 03:45:48;;;;;;;8.43;3.37;;;5.50;99.90;;;;;;5018386;28;20600;-72
2022/03/15 03:48:14;;;;;;;6.13;3.60;;;5.60;99.90;;;;;;5026687;28;20228;-72
2022/03/15 03:50:43;;;;;;;6.57;3.47;;;5.60;99.90;;;;;;5025443;28;20677;-71
2022/03/15 03:53:10;;;;;;;6.67;3.33;;;5.70;99.90;;;;;;5017380;28;20203;-71
2022/03/15 03:55:37;;;;;;;8.10;3.70;;;5.60;99.90;;;;;;5018229;28;20206;-71
2022/03/15 03:58:04;;;;;;;8.40;3.57;;;5.70;99.90;;;;;;5016740;28;20214;-72
2022/03/15 04:00:30;;;;;;;5.87;3.57;;;5.70;99.90;;;;;;5018807;28;20200;-74
2022/03/15 04:03:00;;;;;;;10.30;4.07;;;5.70;99.90;;;;;;5016705;28;20199;-72
2022/03/15 04:05:30;;;;;;;7.17;3.47;;;5.60;99.90;;;;;;5027094;28;20205;-71
2022/03/15 04:07:59;;;;;;;5.67;3.50;;;5.60;99.90;;;;;;5021930;28;20226;-74
2022/03/15 04:10:31;;;;;;;7.67;4.07;;;5.60;99.90;;;;;;5021194;28;20198;-71
2022/03/15 04:12:58;;;;;;;7.63;3.33;;;5.70;99.90;;;;;;5019057;28;20194;-74
2022/03/15 04:15:24;;;;;;;7.33;3.80;;;5.70;99.90;;;;;;5018254;28;20206;-71
2022/03/15 04:17:51;;;;;;;9.00;4.30;;;5.70;99.90;;;;;;5042297;28;20219;-72
2022/03/15 04:20:18;;;;;;;6.33;3.70;;;6.00;99.90;;;;;;5013705;28;20232;-72
2022/03/15 04:22:45;;;;;;;8.07;3.87;;;6.00;99.90;;;;;;5019598;28;20679;-71
2022/03/15 04:25:14;;;;;;;8.63;4.50;;;5.90;99.90;;;;;;5016872;28;20201;-74
2022/03/15 04:27:40;;;;;;;6.63;3.80;;;5.80;99.90;;;;;;5016619;28;20295;-72
2022/03/15 04:30:07;;;;;;;8.63;4.03;;;5.70;99.90;;;;;;5015060;28;20203;-71
2022/03/15 04:32:35;;;;;;;6.57;3.70;;;5.60;99.90;;;;;;5013135;28;20247;-71
2022/03/15 04:35:03;;;;;;;7.17;3.70;;;5.60;99.90;;;;;;5022332;28;20256;-75
2022/03/15 04:37:30;;;;;;;8.00;4.17;;;5.70;99.90;;;;;;5018611;28;20224;-72
2022/03/15 04:39:58;;;;;;;11.13;4.03;;;5.70;99.90;;;;;;5020361;28;20217;-73
2022/03/15 04:42:25;;;;;;;8.97;3.97;;;5.80;99.90;;;;;;5018121;28;20195;-72
2022/03/15 04:44:52;;;;;;;7.33;3.90;;;6.00;99.90;;;;;;5019772;28;20520;-72
2022/03/15 04:47:19;;;;;;;7.80;4.33;;;6.10;99.90;;;;;;5018214;28;20447;-72
2022/03/15 04:49:46;;;;;;;7.10;3.70;;;5.80;99.90;;;;;;5025624;28;20206;-72
2022/03/15 04:52:13;;;;;;;7.80;3.60;;;5.80;99.90;;;;;;5026180;28;20193;-72
2022/03/15 04:54:39;;;;;;;6.47;3.50;;;5.70;99.90;;;;;;5022660;28;20199;-72
2022/03/15 04:57:06;;;;;;;8.20;3.60;;;5.70;99.90;;;;;;5019734;28;20250;-73
2022/03/15 04:59:33;;;;;;;6.07;3.60;;;5.70;99.90;;;;;;5018650;28;20204;-73
2022/03/15 05:01:59;;;;;;;7.13;3.30;;;5.70;99.90;;;;;;5021082;28;20199;-72
2022/03/15 05:04:26;;;;;;;7.10;4.20;;;5.80;99.90;;;;;;5040023;28;20206;-74
2022/03/15 05:06:53;;;;;;;9.40;4.07;;;5.80;99.90;;;;;;5025712;28;20744;-74
2022/03/15 05:09:20;;;;;;;6.43;4.10;;;5.90;99.90;;;;;;5025898;28;20187;-72
2022/03/15 05:11:47;;;;;;;7.30;3.67;;;6.10;99.90;;;;;;5018282;28;20672;-71
2022/03/15 05:14:14;;;;;;;6.97;3.70;;;6.20;99.90;;;;;;5020455;28;20200;-70
2022/03/15 05:16:41;;;;;;;5.87;3.50;;;6.00;99.90;;;;;;5027053;28;20278;-73
2022/03/15 05:19:08;;;;;;;7.20;3.47;;;5.80;99.90;;;;;;5028210;28;20305;-73
2022/03/15 05:21:35;;;;;;;8.23;3.73;;;5.80;99.90;;;;;;5022464;28;20214;-72
2022/03/15 05:24:01;;;;;;;5.27;3.30;;;5.80;99.90;;;;;;5018210;28;20571;-72
2022/03/15 05:26:28;;;;;;;7.47;3.97;;;5.80;99.90;;;;;;5023432;28;20196;-72
2022/03/15 05:28:55;;;;;;;8.73;3.87;;;5.80;99.90;;;;;;5025890;28;20566;-72
2022/03/15 05:31:23;;;;;;;10.13;4.03;;;5.90;99.90;;;;;;5023113;28;20610;-71
2022/03/15 05:33:50;;;;;;;8.80;4.07;;;6.00;99.90;;;;;;5025513;28;20215;-73
2022/03/15 05:36:17;;;;;;;7.10;3.80;;;6.10;99.90;;;;;;5017321;28;20255;-73
2022/03/15 05:38:43;;;;;;;8.23;3.50;;;6.20;99.90;;;;;;5021033;28;20223;-74
2022/03/15 05:41:10;;;;;;;8.70;3.67;;;6.20;99.90;;;;;;5025940;28;20243;-72
2022/03/15 05:43:52;;;;;;;7.93;4.30;;;6.10;99.90;;;;;;5022140;28;20286;-72
2022/03/15 05:46:18;;;;;;;7.20;3.90;;;6.10;99.90;;;;;;5022028;28;20668;-72
2022/03/15 05:48:45;;;;;;;6.57;3.67;;;6.10;99.90;;;;;;5025096;28;20225;-73
2022/03/15 05:51:12;;;;;;;7.17;4.07;;;6.00;99.90;;;;;;5025282;28;20261;-72
2022/03/15 05:53:38;;;;;;;10.07;4.00;;;6.10;99.90;;;;;;5016619;28;20201;-75
2022/03/15 05:56:05;;;;;;;8.97;3.90;;;6.00;99.90;;;;;;5020031;28;20196;-72
2022/03/15 05:58:32;;;;;;;7.97;3.90;;;5.90;99.90;;;;;;5020204;28;20578;-74
2022/03/15 06:00:58;;;;;;;9.77;4.13;;;5.80;99.90;;;;;;5024976;28;20216;-71
2022/03/15 06:03:26;;;;;;;9.97;4.63;;;5.90;99.90;;;;;;5029238;28;20675;-70
2022/03/15 06:05:53;;;;;;;7.10;4.00;;;5.90;99.90;;;;;;5044824;28;20206;-74
2022/03/15 06:08:20;;;;;;;6.90;4.30;;;5.90;99.90;;;;;;5027617;28;20234;-71
2022/03/15 06:10:47;;;;;;;9.20;4.30;;;6.00;99.90;;;;;;5020980;28;20226;-71
2022/03/15 06:13:14;;;;;;;7.20;4.17;;;6.00;99.90;;;;;;5024316;28;20195;-72
2022/03/15 06:15:41;;;;;;;10.33;4.03;;;6.00;99.90;;;;;;5020914;28;20200;-72
2022/03/15 06:18:08;;;;;;;9.03;4.20;;;6.10;99.90;;;;;;5013565;28;20216;-70
2022/03/15 06:20:35;;;;;;;7.00;4.17;;;6.00;99.90;;;;;;5020004;28;20198;-72
2022/03/15 06:23:02;;;;;;;8.07;4.23;;;6.10;99.90;;;;;;5021714;28;20198;-74
2022/03/15 06:25:30;;;;;;;10.30;4.57;;;6.20;99.90;;;;;;5022758;28;20222;-73
2022/03/15 06:27:57;;;;;;;6.43;4.40;;;6.30;99.90;;;;;;5025042;28;20679;-70
2022/03/15 06:30:24;;;;;;;8.97;5.30;;;6.30;99.90;;;;;;5023248;28;20551;-74
2022/03/15 06:32:50;;;;;;;11.37;5.27;;;6.40;99.90;;;;;;5020630;28;20200;-72
2022/03/15 06:35:19;;;;;;;10.07;4.60;;;6.60;99.90;;;;;;5022317;28;20298;-72
2022/03/15 06:37:48;;;;;;;11.87;5.47;;;6.60;99.90;;;;;;5024310;28;20231;-71
2022/03/15 06:40:23;;;;;;;9.47;5.20;;;6.60;99.90;;;;;;5021298;28;20223;-72
2022/03/15 06:42:50;;;;;;;11.40;5.30;;;6.70;99.90;;;;;;5024992;28;20215;-72
2022/03/15 06:45:17;;;;;;;10.23;5.23;;;6.80;99.90;;;;;;5023047;28;21987;-72
2022/03/15 06:47:44;;;;;;;9.07;5.10;;;6.80;99.90;;;;;;5015848;28;20225;-72
2022/03/15 06:50:12;;;;;;;11.07;5.47;;;7.00;99.90;;;;;;5021256;28;20190;-73
2022/03/15 06:52:40;;;;;;;10.97;5.10;;;7.10;99.90;;;;;;5015816;28;20195;-73
2022/03/15 06:55:08;;;;;;;9.40;5.07;;;7.10;99.90;;;;;;5022081;28;20206;-72
2022/03/15 06:57:35;;;;;;;8.37;4.77;;;7.20;99.90;;;;;;5014538;28;20534;-72
2022/03/15 07:00:09;;;;;;;10.37;5.13;;;7.30;99.90;;;;;;5021803;28;20204;-73
2022/03/15 07:02:36;;;;;;;8.23;4.40;;;7.30;99.90;;;;;;5021374;28;20200;-73
2022/03/15 07:05:03;;;;;;;8.57;4.70;;;7.30;99.90;;;;;;5018204;28;20258;-74
2022/03/15 07:07:30;;;;;;;6.93;4.20;;;7.40;99.90;;;;;;5022229;28;20218;-73
2022/03/15 07:09:57;;;;;;;8.13;4.43;;;7.40;99.90;;;;;;5019387;28;20191;-71
2022/03/15 07:12:24;;;;;;;7.03;3.57;;;7.60;99.90;;;;;;5030351;28;20200;-73
2022/03/15 07:14:51;;;;;;;9.87;4.30;;;7.70;99.90;;;;;;5028557;28;20192;-72
2022/03/15 07:17:19;;;;;;;8.37;4.60;;;7.80;99.90;;;;;;5045946;28;20295;-71
2022/03/15 07:19:45;;;;;;;12.30;4.20;;;7.90;99.90;;;;;;5028578;28;20207;-74
2022/03/15 07:22:12;;;;;;;7.40;4.37;;;8.00;99.90;;;;;;5013780;28;20278;-72
2022/03/15 07:24:39;;;;;;;11.93;4.33;;;7.80;99.90;;;;;;5019463;28;20211;-74
2022/03/15 07:27:05;;;;;;;11.13;4.47;;;7.90;99.90;;;;;;5016639;28;20204;-75
2022/03/15 07:29:32;;;;;;;7.90;4.53;;;8.10;99.90;;;;;;5022796;28;20223;-72
2022/03/15 07:31:59;;;;;;;7.73;4.50;;;8.20;99.90;;;;;;5022498;28;20197;-73
2022/03/15 07:34:26;;;;;;;7.60;4.37;;;8.40;99.90;;;;;;5024325;28;20214;-72
2022/03/15 07:36:52;;;;;;;12.93;5.00;;;8.50;99.90;;;;;;5018765;28;20556;-76
2022/03/15 07:39:19;;;;;;;9.40;4.60;;;8.60;99.90;;;;;;5016684;28;20196;-71
2022/03/15 07:41:46;;;;;;;10.43;4.60;;;8.60;99.90;;;;;;5021403;28;20209;-71
2022/03/15 07:44:13;;;;;;;13.83;5.10;;;8.70;99.90;;;;;;5024073;28;20201;-76
2022/03/15 07:46:48;;;;;;;6.63;4.53;;;8.70;99.90;;;;;;5022815;28;20205;-76
2022/03/15 07:49:20;;;;;;;7.63;4.17;;;8.80;99.90;;;;;;5015571;28;20224;-77
2022/03/15 07:51:48;;;;;;;8.00;4.80;;;8.80;99.90;;;;;;5014369;28;20196;-75
2022/03/15 07:54:16;;;;;;;9.97;4.83;;;8.80;99.90;;;;;;5015120;28;20524;-75
2022/03/15 07:56:43;;;;;;;8.53;4.40;;;8.80;99.90;;;;;;5012727;28;20210;-75
2022/03/15 07:59:09;;;;;;;11.47;4.87;;;8.80;99.90;;;;;;5019147;28;20222;-73
2022/03/15 08:01:36;;;;;;;11.50;5.13;;;9.00;99.90;;;;;;5011358;28;20212;-74
2022/03/15 08:04:03;;;;;;;9.33;4.30;;;9.10;99.90;;;;;;5013887;28;20661;-74
2022/03/15 08:06:30;;;;;;;9.27;4.73;;;9.30;99.90;;;;;;5019417;28;20194;-76
2022/03/15 08:08:58;;;;;;;10.10;5.20;;;9.30;99.90;;;;;;5022280;28;20692;-72
2022/03/15 08:11:26;;;;;;;9.83;4.13;;;9.30;99.90;;;;;;5019714;28;21621;-73
2022/03/15 08:13:53;;;;;;;9.37;4.60;;;9.50;99.90;;;;;;5024355;28;20211;-71
2022/03/15 08:16:22;;;;;;;8.77;4.67;;;9.60;99.90;;;;;;5022091;28;20270;-71
2022/03/15 08:18:49;;;;;;;9.27;4.53;;;9.60;99.90;;;;;;5023629;28;20226;-72
2022/03/15 08:21:16;;;;;;;15.47;5.17;;;9.80;99.90;;;;;;5028780;28;20632;-73
2022/03/15 08:23:44;;;;;;;7.83;4.50;;;9.80;99.90;;;;;;5028531;28;20265;-74
2022/03/15 08:26:11;;;;;;;9.70;4.13;;;9.90;99.90;;;;;;5021694;28;20615;-76
2022/03/15 08:28:38;;;;;;;7.13;3.90;;;10.00;99.90;;;;;;5026096;28;20227;-73
2022/03/15 08:31:04;;;;;;;16.53;4.73;;;10.00;99.90;;;;;;5019909;28;20190;-74
2022/03/15 08:33:32;;;;;;;8.33;3.33;;;10.10;99.90;;;;;;5025902;28;20216;-75
2022/03/15 08:35:59;;;;;;;10.20;4.00;;;10.20;99.90;;;;;;5026218;28;20196;-73
2022/03/15 08:38:26;;;;;;;9.93;4.17;;;10.30;99.90;;;;;;5024659;28;20713;-75
2022/03/15 08:40:52;;;;;;;9.67;4.10;;;10.30;99.90;;;;;;5025936;28;20224;-76
2022/03/15 08:43:20;;;;;;;12.50;4.20;;;10.40;99.90;;;;;;5023200;28;20207;-73
2022/03/15 08:45:46;;;;;;;9.87;4.53;;;10.50;99.90;;;;;;5026038;28;20207;-73
2022/03/15 08:48:13;;;;;;;8.70;3.90;;;10.60;99.90;;;;;;5024098;28;20219;-73
2022/03/15 08:50:40;;;;;;;7.57;3.63;;;10.60;99.90;;;;;;5028665;28;20207;-76
2022/03/15 08:53:06;;;;;;;5.47;3.60;;;10.50;99.90;;;;;;5026415;28;20205;-73
2022/03/15 08:55:34;;;;;;;4.83;3.57;;;10.50;99.90;;;;;;5019399;28;20199;-74
2022/03/15 08:58:02;;;;;;;9.70;4.50;;;10.60;99.90;;;;;;5016398;28;20470;-73
2022/03/15 09:00:29;;;;;;;9.47;3.50;;;10.50;99.90;;;;;;5025981;28;20211;-74
2022/03/15 09:03:00;;;;;;;5.93;4.00;;;10.40;99.90;;;;;;5029305;28;20614;-72
2022/03/15 09:05:27;;;;;;;6.50;3.70;;;10.50;99.90;;;;;;5024812;28;20207;-71
2022/03/15 09:07:53;;;;;;;7.53;3.83;;;10.40;99.90;;;;;;5028169;28;20722;-72
2022/03/15 09:10:21;;;;;;;11.03;4.20;;;10.50;99.90;;;;;;5023727;28;20201;-72
2022/03/15 09:12:49;;;;;;;10.27;3.53;;;10.50;99.90;;;;;;5030599;28;20578;-71
2022/03/15 09:15:16;;;;;;;8.23;3.73;;;10.40;99.90;;;;;;5027113;28;20196;-70
2022/03/15 09:17:43;;;;;;;7.00;3.97;;;10.50;99.90;;;;;;5022535;28;20224;-73
2022/03/15 09:20:25;;;;;;;7.07;3.93;;;10.60;99.90;;;;;;5020324;28;20265;-72
2022/03/15 09:22:52;;;;;;;7.83;4.43;;;10.50;99.90;;;;;;5026123;28;20203;-72
2022/03/15 09:25:19;;;;;;;11.87;4.20;;;10.60;99.90;;;;;;5023650;28;20513;-73
2022/03/15 09:27:47;;;;;;;9.90;4.23;;;10.70;99.90;;;;;;5021714;28;20221;-73
2022/03/15 09:30:14;;;;;;;6.87;3.87;;;10.70;99.90;;;;;;5030709;28;20222;-75
2022/03/15 09:32:41;;;;;;;7.87;4.40;;;10.90;99.90;;;;;;5024477;28;20204;-77
2022/03/15 09:35:09;;;;;;;6.13;4.33;;;11.00;99.90;;;;;;5022096;28;20726;-74
2022/03/15 09:37:36;;;;;;;11.50;4.80;;;11.10;99.90;;;;;;5018946;28;20614;-71
2022/03/15 09:40:08;;;;;;;7.90;4.27;;;11.20;99.90;;;;;;5023633;28;20202;-75
2022/03/15 09:42:36;;;;;;;10.27;5.33;;;11.20;99.90;;;;;;5030458;28;20662;-70
2022/03/15 09:45:04;;;;;;;10.40;5.13;;;11.00;99.90;;;;;;5024547;28;20197;-72
2022/03/15 09:47:35;;;;;;;8.77;4.70;;;10.90;99.90;;;;;;5022519;28;20699;-72
2022/03/15 09:50:06;;;;;;;9.83;4.43;;;10.70;99.90;;;;;;5023398;28;20195;-73
2022/03/15 09:52:34;;;;;;;8.93;5.00;;;10.80;99.90;;;;;;5027746;28;20207;-71
2022/03/15 09:55:02;;;;;;;8.17;4.20;;;10.80;99.90;;;;;;5019708;28;20196;-72
2022/03/15 09:57:31;;;;;;;10.37;4.57;;;10.80;99.90;;;;;;5026035;28;20219;-71
2022/03/15 10:00:00;;;;;;;7.17;4.20;;;10.60;99.90;;;;;;5025959;28;20208;-73
2022/03/15 10:02:27;;;;;;;8.53;4.40;;;10.60;99.90;;;;;;5024328;28;20200;-72
2022/03/15 10:04:59;;;;;;;13.10;5.40;;;10.50;99.90;;;;;;5029795;28;20219;-73
2022/03/15 10:07:25;;;;;;;8.70;4.63;;;10.30;99.90;;;;;;5025808;28;20223;-72
2022/03/15 10:09:52;;;;;;;8.93;4.97;;;10.30;99.90;;;;;;5024274;28;20226;-75
2022/03/15 10:12:19;;;;;;;9.40;5.13;;;10.30;99.90;;;;;;5027131;28;20215;-75
2022/03/15 10:14:47;;;;;;;12.73;4.37;;;10.30;99.90;;;;;;5030225;28;20195;-72
2022/03/15 10:17:15;;;;;;;8.23;4.57;;;10.40;99.90;;;;;;5026895;28;20224;-69
2022/03/15 10:19:56;;;;;;;9.37;5.10;;;10.40;99.90;;;;;;5022284;28;20209;-71
2022/03/15 10:22:25;;;;;;;8.80;4.37;;;10.50;99.90;;;;;;5024888;28;20205;-68
2022/03/15 10:24:52;;;;;;;9.17;4.70;;;10.30;99.90;;;;;;5020952;28;20203;-70
2022/03/15 10:27:19;;;;;;;11.17;4.27;;;10.30;99.90;;;;;;5028428;28;20222;-75
2022/03/15 10:29:47;;;;;;;9.73;5.43;;;10.20;99.90;;;;;;5024565;28;20318;-71
2022/03/15 10:32:15;;;;;;;7.63;4.73;;;10.20;99.90;;;;;;5039436;28;20191;-73
2022/03/15 10:34:43;;;;;;;10.73;4.83;;;10.20;99.90;;;;;;5021158;28;20202;-72
2022/03/15 10:37:11;;;;;;;9.17;5.00;;;10.20;99.90;;;;;;5022884;28;20271;-73
2022/03/15 10:39:39;;;;;;;8.43;4.83;;;10.30;99.90;;;;;;5015203;28;20230;-73
2022/03/15 10:42:08;;;;;;;10.80;4.67;;;10.30;99.90;;;;;;5013296;28;20192;-72
2022/03/15 10:44:39;;;;;;;9.03;5.13;;;10.30;99.90;;;;;;5019672;28;20192;-72
2022/03/15 10:47:15;;;;;;;9.23;4.93;;;10.30;99.90;;;;;;5019766;28;20215;-72
2022/03/15 10:49:55;;;;;;;10.47;5.83;;;10.40;99.90;;;;;;5018603;28;20707;-70
2022/03/15 10:52:40;;;;;;;10.07;5.80;;;10.50;99.90;;;;;;5026037;28;20199;-70
2022/03/15 10:55:11;;;;;;;11.77;5.90;;;10.40;99.90;;;;;;5039996;28;20542;-72
2022/03/15 10:58:05;;;;;;;12.27;5.60;;;10.40;99.90;;;;;;5025844;28;20591;-73
2022/03/15 11:00:42;;;;;;;13.47;6.90;;;10.40;99.90;;;;;;5025492;28;20623;-71
2022/03/15 11:03:13;;;;;;;11.87;6.53;;;10.50;99.90;;;;;;5027058;28;20212;-71
2022/03/15 11:05:41;;;;;;;11.60;6.40;;;10.40;99.90;;;;;;5022622;28;20210;-72
2022/03/15 11:08:09;;;;;;;11.07;6.30;;;10.30;99.90;;;;;;5021077;28;20587;-72
2022/03/15 11:10:37;;;;;;;14.50;6.10;;;10.30;99.90;;;;;;5024425;28;20199;-70
2022/03/15 11:13:12;;;;;;;11.90;5.20;;;10.20;99.90;;;;;;5022830;28;20197;-72
2022/03/15 11:15:40;;;;;;;11.33;5.47;;;10.10;99.90;;;;;;5024300;28;20199;-72
2022/03/15 11:18:09;;;;;;;9.33;5.70;;;10.10;99.90;;;;;;5024738;28;20691;-72
2022/03/15 11:20:38;;;;;;;12.27;5.93;;;10.10;99.90;;;;;;5021276;28;20203;-72
2022/03/15 11:23:10;;;;;;;14.17;6.60;;;9.90;99.90;;;;;;5023087;28;20199;-72
2022/03/15 11:25:43;;;;;;;15.30;6.13;;;9.90;99.90;;;;;;5023094;28;20233;-75
2022/03/15 11:28:15;;;;;;;11.93;6.73;;;9.70;99.90;;;;;;5020472;28;20326;-72
2022/03/15 11:30:42;;;;;;;11.57;7.03;;;9.60;99.90;;;;;;5019369;28;20202;-71
2022/03/15 11:33:11;;;;;;;16.47;6.40;;;9.40;99.90;;;;;;5028009;28;20586;-73
2022/03/15 11:35:39;;;;;;;11.30;6.00;;;9.40;99.90;;;;;;5025864;28;20209;-74
2022/03/15 11:38:09;;;;;;;14.20;6.37;;;9.30;99.90;;;;;;5021414;28;20221;-70
2022/03/15 11:40:36;;;;;;;10.97;6.53;;;9.30;99.90;;;;;;5019174;28;20548;-74
2022/03/15 11:43:14;;;;;;;15.37;6.67;;;9.30;99.90;;;;;;5023156;28;20201;-73
2022/03/15 11:46:07;;;;;;;11.27;6.20;;;9.30;99.90;;;;;;5017571;28;20203;-69
2022/03/15 11:48:49;;;;;;;15.17;6.17;;;9.30;99.90;;;;;;5020533;28;20448;-71
2022/03/15 11:51:39;;;;;;;11.40;6.70;;;9.30;99.90;;;;;;5024548;28;20191;-69
2022/03/15 11:54:14;;;;;;;11.73;5.50;;;9.10;99.90;;;;;;5024191;28;20607;-71
2022/03/15 11:56:48;;;;;;;8.93;5.80;;;9.10;99.90;;;;;;5023205;28;20208;-73
2022/03/15 11:59:15;;;;;;;13.40;6.00;;;9.00;99.90;;;;;;5025804;28;20222;-74
2022/03/15 12:01:51;;;;;;;10.27;6.37;;;9.10;99.90;;;;;;5028540;28;20207;-71
2022/03/15 12:04:27;;;;;;;9.27;5.93;;;9.20;99.90;;;;;;5019111;28;20200;-72
2022/03/15 12:06:59;;;;;;;12.20;6.73;;;9.10;99.90;;;;;;5029405;28;20573;-71
2022/03/15 12:09:31;;;;;;;9.63;6.43;;;9.00;99.90;;;;;;5024658;28;20268;-71
2022/03/15 12:12:05;;;;;;;11.30;6.63;;;8.80;99.90;;;;;;5034995;28;20194;-71
2022/03/15 12:14:41;;;;;;;11.30;6.27;;;8.60;99.90;;;;;;5029663;28;20186;-69
2022/03/15 12:17:11;;;;;;;11.67;6.47;;;8.50;99.90;;;;;;5031357;28;20201;-71
2022/03/15 12:19:43;;;;;;;13.30;7.83;;;8.50;99.90;;;;;;5028820;28;20204;-73
2022/03/15 12:22:23;;;;;;;11.77;6.70;;;8.30;99.90;;;;;;5030879;28;20220;-70
2022/03/15 12:25:09;;;;;;;12.23;7.23;;;8.30;99.90;;;;;;5035535;28;20265;-69
2022/03/15 12:28:02;;;;;;;13.23;7.27;;;8.20;99.90;;;;;;5025146;28;20227;-70
2022/03/15 12:30:36;;;;;;;15.77;7.67;;;8.10;99.90;;;;;;5030424;28;20221;-71
2022/03/15 12:33:03;;;;;;;13.40;7.50;;;8.10;99.90;;;;;;5028145;28;20218;-73
2022/03/15 12:35:32;;;;;;;14.53;7.30;;;8.00;99.90;;;;;;5026389;28;20218;-71
2022/03/15 12:38:05;;;;;;;14.43;7.67;;;8.00;99.90;;;;;;5031951;28;20212;-71
2022/03/15 12:40:32;;;;;;;13.17;7.43;;;8.00;99.90;;;;;;5030957;28;20195;-70
2022/03/15 12:43:04;;;;;;;14.97;7.20;;;8.00;99.90;;;;;;5024933;28;20229;-72
2022/03/15 12:45:32;;;;;;;13.60;7.77;;;8.00;99.90;;;;;;5030614;28;20205;-71
2022/03/15 12:48:07;;;;;;;14.97;8.10;;;8.00;99.90;;;;;;5029893;28;20228;-71
2022/03/15 12:50:56;;;;;;;12.90;8.03;;;8.00;99.90;;;;;;5026170;28;20228;-72
2022/03/15 12:53:36;;;;;;;13.33;7.50;;;8.00;99.90;;;;;;5030174;28;20255;-71
2022/03/15 12:56:03;;;;;;;11.70;7.27;;;7.90;99.90;;;;;;5027524;28;20276;-71
2022/03/15 12:58:30;;;;;;;14.87;7.80;;;7.90;99.90;;;;;;5032050;28;20218;-71
2022/03/15 13:00:58;;;;;;;11.40;7.50;;;7.90;99.90;;;;;;5026442;28;20214;-71